createdAt,value
2019-02-28T00:01:50.674Z,9.80
2019-02-28T00:04:20.879Z,10.20
2019-02-28T00:06:51.977Z,11.23
2019-02-28T00:09:25.691Z,13.37
2019-02-28T00:11:54.302Z,12.43
2019-02-28T00:14:27.649Z,16.53
2019-02-28T00:16:57.385Z,17.77
2019-02-28T00:19:27.401Z,11.77
2019-02-28T00:21:57.400Z,12.77
2019-02-28T00:24:30.074Z,9.70
2019-02-28T00:26:59.608Z,11.33
2019-02-28T00:29:33.386Z,10.33
2019-02-28T00:32:01.511Z,7.70
2019-02-28T00:34:31.497Z,7.90
2019-02-28T00:37:01.489Z,8.73
2019-02-28T00:39:34.810Z,8.67
2019-02-28T00:42:03.224Z,10.73
2019-02-28T00:44:33.197Z,10.93
2019-02-28T00:47:03.161Z,8.20
2019-02-28T00:49:33.148Z,8.47
2019-02-28T00:52:03.154Z,9.23
2019-02-28T00:54:33.129Z,7.80
2019-02-28T00:57:03.161Z,10.87
2019-02-28T00:59:33.181Z,7.70
2019-02-28T01:02:03.501Z,10.90
2019-02-28T01:04:33.517Z,7.80
2019-02-28T01:07:04.856Z,9.07
2019-02-28T01:09:34.865Z,8.50
2019-02-28T01:12:04.953Z,8.40
2019-02-28T01:14:36.678Z,10.13
2019-02-28T01:17:06.692Z,9.17
2019-02-28T01:19:36.636Z,11.67
2019-02-28T01:22:06.853Z,8.87
2019-02-28T01:24:36.844Z,9.97
2019-02-28T01:27:07.052Z,12.87
2019-02-28T01:29:37.109Z,9.70
2019-02-28T01:32:07.173Z,8.87
2019-02-28T01:34:37.136Z,10.20
2019-02-28T01:37:07.172Z,8.40
2019-02-28T01:39:37.120Z,6.27
2019-02-28T01:42:07.724Z,7.50
2019-02-28T01:44:37.740Z,7.77
2019-02-28T01:47:08.234Z,11.07
2019-02-28T01:49:38.569Z,6.60
2019-02-28T01:52:10.085Z,6.50
2019-02-28T01:54:40.330Z,8.87
2019-02-28T01:57:10.344Z,9.10
2019-02-28T01:59:40.952Z,6.77
2019-02-28T02:02:10.965Z,6.80
2019-02-28T02:04:43.254Z,7.20
2019-02-28T02:07:13.781Z,8.37
2019-02-28T02:09:46.305Z,8.03
2019-02-28T02:12:15.668Z,7.43
2019-02-28T02:14:45.877Z,7.17
2019-02-28T02:17:16.088Z,7.60
2019-02-28T02:19:46.128Z,6.97
2019-02-28T02:22:16.229Z,7.17
2019-02-28T02:24:46.545Z,7.20
2019-02-28T02:27:19.503Z,8.93
2019-02-28T02:29:48.213Z,12.33
2019-02-28T02:32:18.385Z,8.20
2019-02-28T02:34:48.598Z,7.40
2019-02-28T02:37:18.797Z,7.43
2019-02-28T02:39:50.095Z,9.80
2019-02-28T02:42:20.557Z,13.73
2019-02-28T02:44:50.677Z,9.20
2019-02-28T02:47:21.069Z,8.90
2019-02-28T02:49:56.084Z,9.33
2019-02-28T02:52:29.934Z,22.90
2019-02-28T02:54:54.438Z,12.57
2019-02-28T02:57:24.598Z,8.20
2019-02-28T02:59:54.545Z,8.87
2019-02-28T03:02:28.753Z,9.57
2019-02-28T03:04:58.500Z,10.10
2019-02-28T03:07:28.100Z,9.67
2019-02-28T03:09:58.086Z,8.70
2019-02-28T03:12:31.192Z,8.90
2019-02-28T03:14:59.834Z,7.20
2019-02-28T03:17:30.012Z,9.50
2019-02-28T03:20:00.760Z,7.73
2019-02-28T03:22:31.082Z,7.30
2019-02-28T03:25:03.272Z,8.17
2019-02-28T03:27:33.917Z,8.37
2019-02-28T03:30:04.145Z,8.80
2019-02-28T03:32:42.177Z,13.87
2019-02-28T03:35:06.578Z,12.07
2019-02-28T03:37:36.506Z,10.03
2019-02-28T03:40:07.021Z,11.60
2019-02-28T03:42:37.175Z,13.27
2019-02-28T03:45:07.696Z,11.70
2019-02-28T03:47:37.758Z,10.90
2019-02-28T03:50:08.556Z,11.60
2019-02-28T03:52:44.053Z,10.83
2019-02-28T03:55:10.866Z,13.60
2019-02-28T03:57:41.082Z,10.73
2019-02-28T04:00:14.567Z,9.00
2019-02-28T04:02:44.884Z,10.17
2019-02-28T04:05:15.965Z,11.67
2019-02-28T04:07:52.949Z,12.27
2019-02-28T04:10:22.041Z,12.80
2019-02-28T04:12:49.667Z,11.13
2019-02-28T04:15:20.197Z,13.10
2019-02-28T04:17:51.725Z,7.50
2019-02-28T04:20:21.708Z,9.07
2019-02-28T04:22:58.714Z,11.37
2019-02-28T04:25:24.471Z,10.50
2019-02-28T04:27:55.021Z,11.03
2019-02-28T04:30:25.013Z,9.83
2019-02-28T04:33:01.141Z,12.40
2019-02-28T04:35:26.905Z,8.77
2019-02-28T04:37:56.842Z,7.80
2019-02-28T04:40:27.102Z,8.10
2019-02-28T04:42:57.870Z,8.93
2019-02-28T04:45:28.096Z,9.00
2019-02-28T04:47:58.526Z,11.30
2019-02-28T04:50:32.047Z,10.93
2019-02-28T04:53:00.097Z,12.63
2019-02-28T04:55:30.708Z,8.63
2019-02-28T04:58:01.009Z,7.33
2019-02-28T05:00:31.139Z,9.33
2019-02-28T05:03:01.086Z,9.17
2019-02-28T05:05:31.642Z,8.83
2019-02-28T05:08:05.784Z,8.70
2019-02-28T05:10:33.272Z,8.40
2019-02-28T05:13:03.320Z,7.70
2019-02-28T05:15:37.313Z,8.07
2019-02-28T05:18:04.824Z,9.53
2019-02-28T05:20:34.867Z,9.33
2019-02-28T05:23:04.968Z,10.47
2019-02-28T05:25:34.962Z,11.00
2019-02-28T05:28:06.719Z,12.17
2019-02-28T05:30:37.089Z,11.83
2019-02-28T05:33:07.491Z,11.23
2019-02-28T05:35:37.536Z,14.13
2019-02-28T05:38:07.699Z,14.77
2019-02-28T05:40:41.312Z,15.13
2019-02-28T05:43:09.340Z,14.80
2019-02-28T05:45:39.413Z,14.60
2019-02-28T05:48:09.388Z,12.17
2019-02-28T05:50:39.421Z,10.90
2019-02-28T05:53:10.050Z,14.27
2019-02-28T05:55:40.271Z,13.13
2019-02-28T05:58:10.293Z,14.57
2019-02-28T06:00:40.293Z,14.17
2019-02-28T06:03:10.313Z,15.40
2019-02-28T06:05:43.479Z,15.63
2019-02-28T06:08:12.164Z,16.70
2019-02-28T06:10:42.270Z,14.20
2019-02-28T06:13:15.319Z,11.43
2019-02-28T06:15:44.148Z,13.70
2019-02-28T06:18:14.186Z,12.20
2019-02-28T06:20:44.196Z,13.90
2019-02-28T06:23:14.188Z,14.63
2019-02-28T06:25:44.179Z,16.60
2019-02-28T06:28:14.176Z,19.30
2019-02-28T06:30:44.317Z,17.37
2019-02-28T06:33:14.333Z,16.70
2019-02-28T06:35:44.809Z,17.10
2019-02-28T06:38:16.285Z,16.43
2019-02-28T06:40:46.479Z,17.60
2019-02-28T06:43:18.802Z,17.50
2019-02-28T06:45:48.300Z,18.57
2019-02-28T06:48:20.368Z,14.97
2019-02-28T06:50:50.045Z,14.30
2019-02-28T06:53:20.162Z,16.77
2019-02-28T06:55:50.176Z,15.40
2019-02-28T06:58:20.153Z,18.00
2019-02-28T07:00:50.570Z,19.70
2019-02-28T07:03:20.641Z,29.73
2019-02-28T07:05:50.646Z,33.20
2019-02-28T07:08:24.948Z,28.57
2019-02-28T07:10:52.361Z,24.30
2019-02-28T07:13:22.416Z,22.27
2019-02-28T07:15:55.508Z,24.53
2019-02-28T07:18:24.277Z,22.40
2019-02-28T07:20:54.380Z,20.90
2019-02-28T07:23:26.779Z,13.63
2019-02-28T07:25:56.509Z,12.97
2019-02-28T07:28:26.506Z,24.87
2019-02-28T07:30:56.548Z,23.53
2019-02-28T07:33:26.896Z,22.00
2019-02-28T07:35:57.103Z,18.00
2019-02-28T07:38:28.971Z,16.10
2019-02-28T07:40:59.216Z,26.33
2019-02-28T07:43:29.390Z,25.47
2019-02-28T07:45:59.421Z,17.80
2019-02-28T07:48:30.111Z,17.27
2019-02-28T07:51:00.221Z,19.93
2019-02-28T07:53:30.422Z,20.67
2019-02-28T07:56:03.697Z,20.90
2019-02-28T07:58:33.451Z,15.93
2019-02-28T08:01:03.661Z,16.20
2019-02-28T08:03:33.688Z,14.10
2019-02-28T08:06:04.932Z,15.57
2019-02-28T08:08:35.826Z,15.03
2019-02-28T08:11:06.034Z,19.90
2019-02-28T08:13:37.872Z,16.83
2019-02-28T08:16:07.785Z,14.57
2019-02-28T08:18:37.765Z,16.90
2019-02-28T08:21:08.789Z,15.27
2019-02-28T08:23:39.545Z,16.70
2019-02-28T08:26:09.661Z,16.47
2019-02-28T08:28:41.293Z,18.07
2019-02-28T08:31:11.583Z,15.27
2019-02-28T08:33:41.826Z,13.80
2019-02-28T08:36:12.758Z,14.87
2019-02-28T08:38:43.739Z,16.07
2019-02-28T08:41:13.811Z,18.90
2019-02-28T08:43:44.676Z,19.70
2019-02-28T08:46:15.440Z,16.37
2019-02-28T08:48:45.565Z,18.20
2019-02-28T08:51:15.543Z,17.60
2019-02-28T08:53:50.816Z,17.87
2019-02-28T08:56:17.229Z,16.57
2019-02-28T08:58:47.191Z,20.00
2019-02-28T09:01:17.873Z,18.03
2019-02-28T09:03:47.871Z,20.17
2019-02-28T09:06:17.887Z,21.93
2019-02-28T09:08:47.985Z,21.47
2019-02-28T09:11:20.600Z,23.03
2019-02-28T09:13:49.688Z,24.40
2019-02-28T09:16:19.672Z,25.13
2019-02-28T09:18:49.657Z,24.57
2019-02-28T09:21:19.780Z,26.30
2019-02-28T09:23:49.812Z,25.07
2019-02-28T09:26:19.869Z,25.00
2019-02-28T09:28:49.922Z,22.83
2019-02-28T09:31:20.224Z,23.03
2019-02-28T09:33:50.233Z,21.63
2019-02-28T09:36:21.735Z,19.20
2019-02-28T09:38:57.069Z,18.80
2019-02-28T09:41:23.461Z,18.87
2019-02-28T09:43:56.821Z,18.37
2019-02-28T09:46:25.483Z,17.67
2019-02-28T09:48:55.680Z,17.70
2019-02-28T09:51:25.661Z,17.70
2019-02-28T09:53:55.933Z,17.73
2019-02-28T09:56:25.997Z,19.30
2019-02-28T09:59:03.275Z,19.40
2019-02-28T10:01:35.095Z,19.10
2019-02-28T10:04:05.392Z,18.77
2019-02-28T10:06:35.402Z,20.17
2019-02-28T10:09:08.753Z,19.37
2019-02-28T10:11:40.487Z,19.10
2019-02-28T10:14:12.168Z,18.90
2019-02-28T10:16:42.297Z,19.20
2019-02-28T10:19:13.434Z,20.97
2019-02-28T10:21:44.378Z,18.63
2019-02-28T10:24:14.381Z,17.63
2019-02-28T10:26:44.399Z,18.40
2019-02-28T10:29:14.401Z,17.30
2019-02-28T10:31:44.517Z,18.27
2019-02-28T10:34:14.805Z,17.30
2019-02-28T10:36:47.955Z,18.07
2019-02-28T10:39:16.621Z,17.13
2019-02-28T10:41:46.571Z,17.60
2019-02-28T10:44:16.909Z,18.00
2019-02-28T10:46:50.285Z,17.60
2019-02-28T10:49:21.138Z,17.13
2019-02-28T10:51:51.090Z,18.80
2019-02-28T10:54:21.538Z,18.83
2019-02-28T10:56:51.614Z,16.90
2019-02-28T10:59:24.379Z,16.73
2019-02-28T11:01:53.450Z,20.00
2019-02-28T11:04:23.531Z,20.20
2019-02-28T11:06:53.542Z,20.70
2019-02-28T11:09:25.540Z,21.67
2019-02-28T11:11:55.825Z,22.87
2019-02-28T11:14:25.814Z,20.33
2019-02-28T11:16:59.532Z,24.67
2019-02-28T11:19:27.588Z,22.70
2019-02-28T11:21:57.581Z,21.47
2019-02-28T11:24:27.704Z,21.23
2019-02-28T11:26:58.120Z,20.13
2019-02-28T11:29:28.096Z,21.07
2019-02-28T11:31:59.075Z,17.97
2019-02-28T11:34:29.262Z,21.70
2019-02-28T11:36:59.221Z,20.77
2019-02-28T11:39:30.481Z,20.10
2019-02-28T11:42:01.578Z,20.80
2019-02-28T11:44:31.550Z,21.10
2019-02-28T11:47:01.551Z,22.47
2019-02-28T11:49:31.649Z,22.03
2019-02-28T11:52:01.745Z,25.43
2019-02-28T11:54:32.104Z,26.40
2019-02-28T11:57:03.010Z,25.47
2019-02-28T11:59:33.793Z,26.77
2019-02-28T12:02:04.231Z,24.97
2019-02-28T12:04:37.417Z,27.33
2019-02-28T12:07:06.252Z,28.90
2019-02-28T12:09:36.571Z,31.20
2019-02-28T12:12:07.332Z,33.60
2019-02-28T12:14:38.721Z,34.30
2019-02-28T12:17:08.809Z,34.10
2019-02-28T12:19:39.482Z,30.00
2019-02-28T12:22:12.138Z,35.63
2019-02-28T12:24:41.073Z,36.20
2019-02-28T12:27:11.392Z,34.43
2019-02-28T12:29:41.616Z,41.40
2019-02-28T12:32:12.130Z,44.03
2019-02-28T12:34:42.878Z,39.40
2019-02-28T12:37:13.229Z,40.83
2019-02-28T12:39:43.197Z,37.90
2019-02-28T12:42:13.361Z,38.87
2019-02-28T12:44:43.356Z,40.27
2019-02-28T12:47:13.350Z,37.57
2019-02-28T12:49:43.479Z,40.33
2019-02-28T12:52:14.559Z,41.13
2019-02-28T12:54:45.473Z,37.90
2019-02-28T12:57:15.625Z,39.90
2019-02-28T12:59:47.000Z,37.50
2019-02-28T13:02:17.227Z,40.97
2019-02-28T13:04:47.279Z,42.17
2019-02-28T13:07:17.253Z,42.93
2019-02-28T13:09:48.175Z,43.20
2019-02-28T13:12:19.113Z,42.70
2019-02-28T13:14:49.230Z,45.23
2019-02-28T13:17:19.241Z,40.00
2019-02-28T13:19:53.115Z,45.37
2019-02-28T13:22:23.528Z,45.60
2019-02-28T13:24:52.984Z,48.57
2019-02-28T13:27:23.116Z,44.30
2019-02-28T13:29:53.311Z,46.30
2019-02-28T13:32:23.308Z,46.50
2019-02-28T13:34:53.664Z,45.03
2019-02-28T13:37:23.757Z,46.90
2019-02-28T13:39:53.780Z,44.17
2019-02-28T13:42:23.763Z,43.80
2019-02-28T13:44:55.818Z,42.23
2019-02-28T13:47:25.820Z,45.60
2019-02-28T13:49:55.886Z,43.20
2019-02-28T13:52:25.873Z,44.63
2019-02-28T13:54:55.860Z,41.97
2019-02-28T13:57:25.893Z,38.20
2019-02-28T13:59:55.861Z,41.60
2019-02-28T14:02:26.259Z,42.07
2019-02-28T14:04:58.707Z,37.63
2019-02-28T14:07:30.085Z,41.57
2019-02-28T14:10:01.401Z,40.70
2019-02-28T14:12:31.761Z,41.60
2019-02-28T14:15:01.984Z,45.07
2019-02-28T14:17:32.568Z,41.73
2019-02-28T14:20:05.071Z,41.33
2019-02-28T14:22:35.793Z,43.70
2019-02-28T14:25:06.663Z,43.30
2019-02-28T14:27:36.631Z,41.27
2019-02-28T14:30:09.126Z,41.80
2019-02-28T14:32:42.388Z,42.60
2019-02-28T14:35:11.217Z,41.63
2019-02-28T14:37:41.218Z,43.23
2019-02-28T14:40:14.652Z,43.67
2019-02-28T14:42:44.806Z,43.60
2019-02-28T14:45:15.741Z,45.60
2019-02-28T14:47:45.857Z,44.77
2019-02-28T14:50:18.925Z,42.20
2019-02-28T14:52:47.849Z,41.63
2019-02-28T14:55:18.064Z,44.17
2019-02-28T14:57:49.537Z,45.00
2019-02-28T15:00:22.447Z,46.23
2019-02-28T15:02:52.477Z,44.50
2019-02-28T15:05:22.662Z,46.90
2019-02-28T15:07:52.789Z,45.73
2019-02-28T15:10:23.327Z,46.10
2019-02-28T15:12:55.356Z,44.20
2019-02-28T15:15:26.488Z,46.07
2019-02-28T15:17:56.605Z,45.33
2019-02-28T15:20:31.545Z,47.13
2019-02-28T15:22:59.613Z,47.70
2019-02-28T15:25:30.793Z,45.00
2019-02-28T15:28:00.813Z,45.80
2019-02-28T15:30:34.025Z,45.40
2019-02-28T15:33:03.855Z,46.37
2019-02-28T15:35:34.333Z,46.80
2019-02-28T15:38:05.667Z,43.90
2019-02-28T15:40:36.963Z,41.40
2019-02-28T15:43:06.997Z,43.83
2019-02-28T15:45:37.375Z,45.87
2019-02-28T15:48:07.726Z,45.40
2019-02-28T15:50:37.717Z,47.80
2019-02-28T15:53:07.904Z,48.40
2019-02-28T15:55:37.997Z,45.27
2019-02-28T15:58:08.133Z,42.43
2019-02-28T16:00:38.747Z,46.17
2019-02-28T16:03:09.061Z,41.90
2019-02-28T16:05:44.054Z,42.87
2019-02-28T16:08:10.920Z,41.10
2019-02-28T16:10:41.058Z,42.93
2019-02-28T16:13:11.085Z,42.40
2019-02-28T16:15:43.259Z,42.70
2019-02-28T16:18:13.268Z,38.57
2019-02-28T16:20:43.237Z,41.63
2019-02-28T16:23:13.530Z,42.60
2019-02-28T16:25:46.953Z,40.10
2019-02-28T16:28:15.458Z,42.53
2019-02-28T16:30:45.584Z,41.20
2019-02-28T16:33:16.549Z,44.33
2019-02-28T16:35:50.056Z,43.20
2019-02-28T16:38:18.483Z,44.20
2019-02-28T16:40:48.460Z,45.80
2019-02-28T16:43:20.825Z,45.87
2019-02-28T16:45:51.023Z,46.00
2019-02-28T16:48:20.966Z,48.60
2019-02-28T16:50:53.682Z,47.83
2019-02-28T16:53:23.803Z,49.47
2019-02-28T16:55:53.890Z,49.27
2019-02-28T16:58:23.950Z,47.23
2019-02-28T17:00:53.963Z,49.67
2019-02-28T17:03:24.711Z,51.80
2019-02-28T17:05:54.906Z,53.70
2019-02-28T17:08:26.500Z,54.63
2019-02-28T17:10:56.682Z,54.43
2019-02-28T17:13:51.708Z,54.10
2019-02-28T17:16:33.634Z,58.07
2019-02-28T17:19:04.711Z,53.10
2019-02-28T17:21:34.957Z,49.97
2019-02-28T17:24:05.129Z,50.37
2019-02-28T17:27:08.977Z,49.60
2019-02-28T17:30:01.710Z,40.80
2019-02-28T17:32:32.322Z,47.03
2019-02-28T17:35:02.321Z,44.03
2019-02-28T17:37:32.422Z,46.20
2019-02-28T17:40:02.442Z,43.37
2019-02-28T17:42:32.590Z,42.20
2019-02-28T17:45:24.387Z,44.50
2019-02-28T17:48:28.876Z,36.13
2019-02-28T17:51:03.043Z,40.70
2019-02-28T17:53:45.729Z,44.50
2019-02-28T17:57:17.691Z,45.27
2019-02-28T18:00:53.869Z,38.87
2019-02-28T18:03:48.419Z,36.23
2019-02-28T18:06:58.293Z,36.50
2019-02-28T18:09:56.022Z,38.00
2019-02-28T18:13:01.306Z,43.70
2019-02-28T18:15:57.533Z,45.40
2019-02-28T18:19:33.147Z,45.50
2019-02-28T18:22:43.565Z,39.10
2019-02-28T18:26:06.353Z,43.03
2019-02-28T18:29:11.734Z,44.27
2019-02-28T18:31:41.998Z,39.00
2019-02-28T18:34:20.633Z,40.90
2019-02-28T18:36:50.784Z,34.90
2019-02-28T18:39:20.789Z,36.63
2019-02-28T18:41:50.902Z,39.20
2019-02-28T18:44:21.251Z,36.80
2019-02-28T18:46:51.489Z,35.13
2019-02-28T18:49:21.613Z,38.27
2019-02-28T18:51:51.633Z,35.20
2019-02-28T18:54:21.853Z,32.43
2019-02-28T18:56:51.980Z,30.70
2019-02-28T18:59:22.029Z,33.67
2019-02-28T19:01:52.116Z,39.30
2019-02-28T19:04:22.450Z,37.47
2019-02-28T19:06:52.417Z,38.07
2019-02-28T19:09:24.250Z,35.10
2019-02-28T19:11:54.189Z,37.83
2019-02-28T19:14:24.228Z,34.43
2019-02-28T19:16:54.220Z,35.77
2019-02-28T19:19:24.667Z,36.40
2019-02-28T19:21:54.787Z,35.33
2019-02-28T19:24:25.025Z,31.63
2019-02-28T19:26:55.309Z,40.07
2019-02-28T19:29:25.408Z,42.17
2019-02-28T19:31:55.392Z,45.77
2019-02-28T19:34:25.598Z,46.40
2019-02-28T19:36:55.667Z,43.07
2019-02-28T19:39:25.806Z,45.90
2019-02-28T19:41:55.785Z,51.87
2019-02-28T19:44:25.926Z,43.97
2019-02-28T19:46:56.090Z,42.43
2019-02-28T19:49:26.544Z,44.83
2019-02-28T19:51:56.557Z,52.27
2019-02-28T19:54:26.572Z,46.93
2019-02-28T19:56:56.564Z,51.87
2019-02-28T19:59:26.604Z,50.97
2019-02-28T20:01:56.896Z,47.57
2019-02-28T20:04:27.126Z,57.10
2019-02-28T20:06:57.138Z,47.63
2019-02-28T20:09:27.689Z,44.97
2019-02-28T20:11:57.932Z,45.40
2019-02-28T20:14:27.996Z,50.50
2019-02-28T20:16:58.010Z,49.37
2019-02-28T20:19:28.099Z,48.97
2019-02-28T20:21:58.020Z,46.70
2019-02-28T20:24:28.301Z,47.43
2019-02-28T20:26:58.668Z,45.90
2019-02-28T20:29:28.848Z,40.40
2019-02-28T20:31:58.969Z,46.00
2019-02-28T20:34:29.464Z,47.17
2019-02-28T20:36:59.650Z,43.40
2019-02-28T20:39:29.925Z,41.87
2019-02-28T20:42:00.679Z,42.20
2019-02-28T20:44:31.349Z,43.13
2019-02-28T20:47:01.368Z,45.67
2019-02-28T20:49:31.682Z,45.67
2019-02-28T20:52:01.653Z,45.97
2019-02-28T20:54:31.794Z,42.67
2019-02-28T20:57:01.807Z,47.43
2019-02-28T20:59:31.993Z,44.50
2019-02-28T21:02:02.491Z,44.80
2019-02-28T21:04:32.773Z,42.33
2019-02-28T21:07:02.915Z,40.53
2019-02-28T21:09:32.940Z,36.77
2019-02-28T21:12:03.017Z,42.10
2019-02-28T21:14:33.245Z,46.00
2019-02-28T21:17:03.682Z,51.67
2019-02-28T21:19:33.712Z,49.20
2019-02-28T21:22:03.937Z,45.43
2019-02-28T21:24:34.125Z,44.17
2019-02-28T21:27:05.148Z,49.63
2019-02-28T21:29:35.181Z,51.50
2019-02-28T21:32:05.389Z,53.50
2019-02-28T21:34:35.487Z,55.67
2019-02-28T21:37:05.521Z,54.40
2019-02-28T21:39:35.604Z,45.37
2019-02-28T21:42:06.248Z,49.57
2019-02-28T21:44:37.004Z,45.50
2019-02-28T21:47:07.390Z,44.67
2019-02-28T21:49:37.489Z,42.67
2019-02-28T21:52:07.453Z,42.13
2019-02-28T21:54:37.874Z,40.97
2019-02-28T21:57:07.889Z,45.60
2019-02-28T21:59:38.025Z,46.87
2019-02-28T22:02:08.307Z,40.83
2019-02-28T22:04:38.413Z,40.87
2019-02-28T22:07:08.894Z,36.17
2019-02-28T22:09:38.932Z,43.17
2019-02-28T22:12:08.964Z,44.07
2019-02-28T22:14:39.928Z,36.57
2019-02-28T22:17:09.926Z,35.50
2019-02-28T22:19:40.012Z,36.87
2019-02-28T22:22:10.085Z,37.67
2019-02-28T22:24:40.086Z,39.20
2019-02-28T22:27:10.106Z,35.43
2019-02-28T22:29:40.109Z,38.90
2019-02-28T22:32:24.359Z,39.83
2019-02-28T22:35:01.149Z,46.50
2019-02-28T22:37:31.192Z,41.50
2019-02-28T22:40:01.194Z,37.00
2019-02-28T22:42:31.217Z,37.07
2019-02-28T22:45:01.212Z,40.03
2019-02-28T22:47:31.329Z,35.30
2019-02-28T22:50:01.547Z,38.20
2019-02-28T22:52:31.594Z,37.87
2019-02-28T22:55:03.101Z,33.97
2019-02-28T22:57:33.265Z,38.17
2019-02-28T23:00:03.373Z,40.73
2019-02-28T23:02:34.649Z,40.07
2019-02-28T23:05:04.753Z,34.00
2019-02-28T23:07:34.760Z,37.03
2019-02-28T23:10:05.366Z,34.37
2019-02-28T23:12:35.548Z,33.40
2019-02-28T23:15:06.175Z,30.53
2019-02-28T23:17:37.253Z,30.90
2019-02-28T23:20:07.910Z,36.90
2019-02-28T23:22:38.944Z,33.57
2019-02-28T23:25:09.072Z,36.23
2019-02-28T23:27:39.125Z,33.60
2019-02-28T23:30:45.500Z,27.87
2019-02-28T23:33:18.689Z,30.00
2019-02-28T23:35:50.090Z,32.07
2019-02-28T23:38:20.177Z,34.03
2019-02-28T23:40:50.416Z,36.30
2019-02-28T23:43:21.101Z,30.90
2019-02-28T23:45:51.194Z,29.50
2019-02-28T23:48:21.201Z,29.17
2019-02-28T23:50:51.285Z,32.43
2019-02-28T23:53:21.283Z,29.83
2019-02-28T23:55:51.270Z,28.53
2019-02-28T23:58:21.319Z,28.10
